Details for Virgin Atlantic at EGCC




Go Back


Latest METAR
Local Time

EGCC 220820Z AUTO 20005KT 170V230 9999 NCD 09/07 Q1017 NOSIG
22/09/2018, 09:52:10

Description
Results
Virgin Atlantic Logo
Number of Pilots based at EGCC
1 Pilots Based here
Number of Virgin Atlantic Flights Departed from EGCC
4 Flights Departed
Number of Virgin Atlantic Flights Arrived at EGCC
2 Flights Arrived
Number of Virgin Atlantic Schedules Departing from EGCC
8 Schedules
Number of Virgin Atlantic Schedules Arriving at EGCC
7 Schedules
Number of Virgin Atlantic Schedules Departing from EGCC availible today
4 Schedules Today
Number of Virgin Atlantic Schedules Arriving at EGCC availible today
4 Schedules Today
Average Landing Rate at EGCC
-201 fpm
Virgin Atlantic Average Landing Rate at EGCC
-300 fpm
Total Fuel Purchased at EGCC by Virgin Atlantic
315,246.30 kgs / 694,991.99 lbs

Pilots Based at EGCC


Pilot ID
Pilot Name
Pilot Rank
No. of Flights
No. of Flying Hours
Andrew Sutcliffe
444
1677.31
Content